createdAt,value
2023-03-10T00:00:00.411Z,2.25
2023-03-10T00:02:29.968Z,1.38
2023-03-10T00:04:58.418Z,1.55
2023-03-10T00:07:25.794Z,1.27
2023-03-10T00:09:53.105Z,3.42
2023-03-10T00:12:20.496Z,1.42
2023-03-10T00:14:49.176Z,3.42
2023-03-10T00:17:16.472Z,2.65
2023-03-10T00:19:43.751Z,2.45
2023-03-10T00:22:11.082Z,1.45
2023-03-10T00:24:38.402Z,2.42
2023-03-10T00:27:05.734Z,2.90
2023-03-10T00:29:33.049Z,1.70
2023-03-10T00:32:01.716Z,2.10
2023-03-10T00:34:29.019Z,1.38
2023-03-10T00:36:56.401Z,1.23
2023-03-10T00:39:23.703Z,3.42
2023-03-10T00:41:51.009Z,2.20
2023-03-10T00:44:18.360Z,2.22
2023-03-10T00:46:45.781Z,0.95
2023-03-10T00:49:16.626Z,6.93
2023-03-10T00:51:44.202Z,4.28
2023-03-10T00:54:11.695Z,3.40
2023-03-10T00:56:39.030Z,4.57
2023-03-10T00:59:07.194Z,1.95
2023-03-10T01:01:35.841Z,2.63
2023-03-10T01:04:04.045Z,3.15
2023-03-10T01:06:33.408Z,1.13
2023-03-10T01:09:01.171Z,1.58
2023-03-10T01:11:29.526Z,0.80
2023-03-10T01:13:57.947Z,1.63
2023-03-10T01:16:25.473Z,2.28
2023-03-10T01:18:53.111Z,1.67
2023-03-10T01:21:21.950Z,1.55
2023-03-10T01:23:50.917Z,1.40
2023-03-10T01:26:18.978Z,2.45
2023-03-10T01:28:46.504Z,0.90
2023-03-10T01:31:13.990Z,3.67
2023-03-10T01:33:42.630Z,0.85
2023-03-10T01:36:10.224Z,2.10
2023-03-10T01:38:37.695Z,1.80
2023-03-10T01:41:06.907Z,6.88
2023-03-10T01:43:35.224Z,7.47
2023-03-10T01:46:25.063Z,8.02
2023-03-10T01:48:52.592Z,2.63
2023-03-10T01:51:20.503Z,3.70
2023-03-10T01:53:47.911Z,9.27
2023-03-10T01:56:16.607Z,6.07
2023-03-10T01:58:45.666Z,1.00
2023-03-10T02:01:13.665Z,7.18
2023-03-10T02:03:42.639Z,2.38
2023-03-10T02:06:11.986Z,5.72
2023-03-10T02:08:44.208Z,3.22
2023-03-10T02:11:11.891Z,2.80
2023-03-10T02:13:40.607Z,6.05
2023-03-10T02:16:08.335Z,4.53
2023-03-10T02:18:35.724Z,4.18
2023-03-10T02:21:08.601Z,5.13
2023-03-10T02:23:45.035Z,1.98
2023-03-10T02:26:19.633Z,3.55
2023-03-10T02:28:49.652Z,3.05
2023-03-10T02:31:18.101Z,4.65
2023-03-10T02:33:46.907Z,8.98
2023-03-10T02:36:15.217Z,5.85
2023-03-10T02:38:42.566Z,6.07
2023-03-10T02:41:16.139Z,4.70
2023-03-10T02:43:43.506Z,2.63
2023-03-10T02:46:12.262Z,8.52
2023-03-10T02:48:40.581Z,6.15
2023-03-10T02:51:10.385Z,4.43
2023-03-10T02:53:37.962Z,7.47
2023-03-10T02:56:05.491Z,8.45
2023-03-10T02:58:33.166Z,6.95
2023-03-10T03:01:00.699Z,10.02
2023-03-10T03:03:29.408Z,7.35
2023-03-10T03:05:56.754Z,10.15
2023-03-10T03:08:24.074Z,9.23
2023-03-10T03:10:51.384Z,9.65
2023-03-10T03:13:18.702Z,14.15
2023-03-10T03:15:46.042Z,14.43
2023-03-10T03:18:13.373Z,11.68
2023-03-10T03:20:42.078Z,14.13
2023-03-10T03:23:09.360Z,13.65
2023-03-10T03:25:38.628Z,8.90
2023-03-10T03:28:06.323Z,11.68
2023-03-10T03:30:33.662Z,10.35
2023-03-10T03:33:02.039Z,10.30
2023-03-10T03:35:30.715Z,11.30
2023-03-10T03:37:59.655Z,7.03
2023-03-10T03:40:27.655Z,12.10
2023-03-10T03:42:55.331Z,9.70
2023-03-10T03:45:23.525Z,11.98
2023-03-10T03:47:51.217Z,8.57
2023-03-10T03:50:19.226Z,7.75
2023-03-10T03:52:47.310Z,4.95
2023-03-10T03:55:17.122Z,9.30
2023-03-10T03:57:45.384Z,11.32
2023-03-10T04:00:15.327Z,7.38
2023-03-10T04:02:42.916Z,4.80
2023-03-10T04:05:10.350Z,11.43
2023-03-10T04:07:39.073Z,6.22
2023-03-10T04:10:06.980Z,4.85
2023-03-10T04:12:35.627Z,4.68
2023-03-10T04:15:02.935Z,5.13
2023-03-10T04:17:30.243Z,4.82
2023-03-10T04:20:06.920Z,8.30
2023-03-10T04:22:35.096Z,9.05
2023-03-10T04:25:02.468Z,5.32
2023-03-10T04:27:29.786Z,8.98
2023-03-10T04:29:58.619Z,5.63
2023-03-10T04:32:26.641Z,6.50
2023-03-10T04:34:54.005Z,8.30
2023-03-10T04:37:21.709Z,6.15
2023-03-10T04:39:49.093Z,5.05
2023-03-10T04:42:16.390Z,4.75
2023-03-10T04:44:43.658Z,5.68
2023-03-10T04:47:12.309Z,5.60
2023-03-10T04:49:39.624Z,7.53
2023-03-10T04:52:07.219Z,6.43
2023-03-10T04:54:34.496Z,7.70
2023-03-10T04:57:01.809Z,5.35
2023-03-10T04:59:29.096Z,4.05
2023-03-10T05:01:56.453Z,6.00
2023-03-10T05:04:25.233Z,4.13
2023-03-10T05:06:52.948Z,7.80
2023-03-10T05:09:20.257Z,11.40
2023-03-10T05:11:47.647Z,4.75
2023-03-10T05:14:15.362Z,6.93
2023-03-10T05:16:42.819Z,12.23
2023-03-10T05:19:10.288Z,11.98
2023-03-10T05:21:38.951Z,12.45
2023-03-10T05:24:06.472Z,7.13
2023-03-10T05:26:35.015Z,8.27
2023-03-10T05:29:02.491Z,8.40
2023-03-10T05:31:29.934Z,7.72
2023-03-10T05:33:57.847Z,4.60
2023-03-10T05:36:25.182Z,9.68
2023-03-10T05:38:53.856Z,8.18
2023-03-10T05:41:21.227Z,8.45
2023-03-10T05:43:48.514Z,12.70
2023-03-10T05:46:15.919Z,9.95
2023-03-10T05:48:43.253Z,10.85
2023-03-10T05:51:11.827Z,10.32
2023-03-10T05:53:39.603Z,4.72
2023-03-10T05:56:09.276Z,5.47
2023-03-10T05:58:36.596Z,13.02
2023-03-10T06:01:04.137Z,9.02
2023-03-10T06:03:31.840Z,11.23
2023-03-10T06:05:59.562Z,11.60
2023-03-10T06:08:28.702Z,8.07
2023-03-10T06:10:56.105Z,8.93
2023-03-10T06:13:25.063Z,6.03
2023-03-10T06:15:52.571Z,8.82
2023-03-10T06:18:20.329Z,6.15
2023-03-10T06:20:48.849Z,9.65
2023-03-10T06:23:16.448Z,8.15
2023-03-10T06:25:44.079Z,6.70
2023-03-10T06:28:11.634Z,4.65
2023-03-10T06:30:40.289Z,8.98
2023-03-10T06:33:07.636Z,8.43
2023-03-10T06:35:35.006Z,7.45
2023-03-10T06:38:05.693Z,7.22
2023-03-10T06:40:32.989Z,4.32
2023-03-10T06:43:00.875Z,7.22
2023-03-10T06:45:28.188Z,3.70
2023-03-10T06:47:56.915Z,6.90
2023-03-10T06:50:24.247Z,8.48
2023-03-10T06:52:51.536Z,5.38
2023-03-10T06:55:18.813Z,5.68
2023-03-10T06:57:46.095Z,9.15
2023-03-10T07:00:15.664Z,6.07
2023-03-10T07:02:43.257Z,5.35
2023-03-10T07:05:13.173Z,3.78
2023-03-10T07:07:40.540Z,6.72
2023-03-10T07:10:08.531Z,4.70
2023-03-10T07:12:35.922Z,6.70
2023-03-10T07:15:03.327Z,6.43
2023-03-10T07:17:30.614Z,2.97
2023-03-10T07:19:58.110Z,5.13
2023-03-10T07:22:26.757Z,6.43
2023-03-10T07:24:54.875Z,4.90
2023-03-10T07:27:22.204Z,4.07
2023-03-10T07:29:49.906Z,3.25
2023-03-10T07:32:17.324Z,5.75
2023-03-10T07:34:44.660Z,3.85
2023-03-10T07:37:11.989Z,5.97
2023-03-10T07:39:40.728Z,4.00
2023-03-10T07:42:08.242Z,2.92
2023-03-10T07:44:35.548Z,6.85
2023-03-10T07:47:02.870Z,3.78
2023-03-10T07:49:30.193Z,4.18
2023-03-10T07:51:57.505Z,3.53
2023-03-10T07:54:24.803Z,4.10
2023-03-10T07:56:53.657Z,5.93
2023-03-10T07:59:20.940Z,6.65
2023-03-10T08:01:48.264Z,4.28
2023-03-10T08:04:17.040Z,3.22
2023-03-10T08:06:45.737Z,6.25
2023-03-10T08:09:13.027Z,3.83
2023-03-10T08:11:40.536Z,4.18
2023-03-10T08:14:09.200Z,7.05
2023-03-10T08:16:38.196Z,7.38
2023-03-10T08:19:05.509Z,6.90
2023-03-10T08:21:32.889Z,6.43
2023-03-10T08:24:00.164Z,5.93
2023-03-10T08:26:27.480Z,6.50
2023-03-10T08:28:54.787Z,7.93
2023-03-10T08:31:23.468Z,7.22
2023-03-10T08:33:50.833Z,11.23
2023-03-10T08:36:19.605Z,8.45
2023-03-10T08:38:47.486Z,8.77
2023-03-10T08:41:15.976Z,12.15
2023-03-10T08:43:43.315Z,6.72
2023-03-10T08:46:13.387Z,8.25
2023-03-10T08:48:43.023Z,5.80
2023-03-10T08:51:13.080Z,7.43
2023-03-10T08:53:41.782Z,7.43
2023-03-10T08:56:09.183Z,7.97
2023-03-10T08:58:36.476Z,5.75
2023-03-10T09:01:03.845Z,7.90
2023-03-10T09:03:32.027Z,5.30
2023-03-10T09:06:03.582Z,7.13
2023-03-10T09:08:30.935Z,6.53
2023-03-10T09:10:58.460Z,6.25
2023-03-10T09:13:25.974Z,7.38
2023-03-10T09:15:53.319Z,8.38
2023-03-10T09:18:21.078Z,8.73
2023-03-10T09:20:48.530Z,9.27
2023-03-10T09:23:17.655Z,9.93
2023-03-10T09:25:44.954Z,5.35
2023-03-10T09:28:12.464Z,6.47
2023-03-10T09:30:42.518Z,7.38
2023-03-10T09:33:14.452Z,6.18
2023-03-10T09:35:52.500Z,6.18
2023-03-10T09:38:26.701Z,5.30
2023-03-10T09:40:58.390Z,6.18
2023-03-10T09:43:26.159Z,4.25
2023-03-10T09:45:55.998Z,8.00
2023-03-10T09:48:37.209Z,4.28
2023-03-10T09:51:06.895Z,5.97
2023-03-10T09:53:59.682Z,7.55
2023-03-10T09:56:30.122Z,6.05
2023-03-10T09:58:58.920Z,3.70
2023-03-10T10:01:28.524Z,9.55
2023-03-10T10:03:57.451Z,9.45
2023-03-10T10:06:28.173Z,6.38
2023-03-10T10:09:04.144Z,8.32
2023-03-10T10:11:34.146Z,5.13
2023-03-10T10:14:15.918Z,2.80
2023-03-10T10:16:48.975Z,5.97
2023-03-10T10:19:20.856Z,5.20
2023-03-10T10:21:50.939Z,7.32
2023-03-10T10:24:19.053Z,4.97
2023-03-10T11:19:29.235Z,7.53
2023-03-10T11:22:02.029Z,1.58
2023-03-10T11:24:32.124Z,5.70
2023-03-10T11:27:02.038Z,2.88
2023-03-10T11:29:34.352Z,3.95
2023-03-10T11:32:04.708Z,4.43
2023-03-10T11:34:36.274Z,3.63
2023-03-10T11:37:09.465Z,5.45
2023-03-10T11:39:41.505Z,4.70
2023-03-10T11:42:13.680Z,2.55
2023-03-10T11:44:46.635Z,5.10
2023-03-10T11:47:17.272Z,3.80
2023-03-10T11:49:47.276Z,1.77
2023-03-10T11:52:17.868Z,2.92
2023-03-10T11:54:47.756Z,2.70
2023-03-10T11:57:17.132Z,5.13
2023-03-10T11:59:47.604Z,1.63
2023-03-10T12:02:20.033Z,4.97
2023-03-10T12:04:51.988Z,1.67
2023-03-10T12:07:22.536Z,1.65
2023-03-10T12:09:51.101Z,1.85
2023-03-10T12:12:21.252Z,1.35
2023-03-10T12:14:48.851Z,2.45
2023-03-10T12:17:18.113Z,4.13
2023-03-10T12:20:05.052Z,1.52
2023-03-10T12:22:39.643Z,2.63
2023-03-10T12:25:29.239Z,2.78
2023-03-10T12:28:13.700Z,3.17
2023-03-10T12:30:45.568Z,2.13
2023-03-10T12:33:27.756Z,2.03
2023-03-10T12:35:56.118Z,2.65
2023-03-10T12:38:31.134Z,1.98
2023-03-10T12:40:59.107Z,0.88
2023-03-10T12:43:44.975Z,1.75
2023-03-10T12:46:15.089Z,2.03
2023-03-10T12:48:45.651Z,3.15
2023-03-10T12:51:15.456Z,1.98
2023-03-10T12:53:47.026Z,1.33
2023-03-10T12:56:22.249Z,3.45
2023-03-10T12:58:53.185Z,3.28
2023-03-10T13:01:23.818Z,1.48
2023-03-10T13:03:52.554Z,4.22
2023-03-10T13:06:22.270Z,2.17
2023-03-10T13:08:50.685Z,2.10
2023-03-10T13:11:26.880Z,1.80
2023-03-10T13:13:57.207Z,1.95
2023-03-10T13:16:25.993Z,2.00
2023-03-10T13:18:54.000Z,7.70
2023-03-10T13:21:26.404Z,2.67
2023-03-10T13:23:53.805Z,3.53
2023-03-10T13:26:21.832Z,3.22
2023-03-10T13:28:53.241Z,0.93
2023-03-10T13:31:23.795Z,1.25
2023-03-10T13:33:54.178Z,1.52
2023-03-10T13:36:30.167Z,0.73
2023-03-10T13:38:57.610Z,1.08
2023-03-10T13:41:25.423Z,1.92
2023-03-10T13:43:53.264Z,1.98
2023-03-10T13:46:23.396Z,3.15
2023-03-10T13:48:52.720Z,1.92
2023-03-10T13:51:21.238Z,2.80
2023-03-10T13:53:52.376Z,3.08
2023-03-10T13:56:21.262Z,4.35
2023-03-10T13:58:49.559Z,1.98
2023-03-10T14:01:21.906Z,2.92
2023-03-10T14:03:50.062Z,2.17
2023-03-10T14:06:19.062Z,3.65
2023-03-10T14:08:46.674Z,2.70
2023-03-10T14:11:38.299Z,2.55
2023-03-10T14:14:07.897Z,2.28
2023-03-10T14:16:44.781Z,2.17
2023-03-10T14:19:12.385Z,1.00
2023-03-10T14:21:52.450Z,0.90
2023-03-10T14:24:27.931Z,0.80
2023-03-10T14:26:55.913Z,0.77
2023-03-10T14:29:23.256Z,1.58
2023-03-10T14:31:51.168Z,3.47
2023-03-10T14:34:18.712Z,0.63
2023-03-10T14:36:47.371Z,0.50
2023-03-10T14:39:14.720Z,0.80
2023-03-10T14:41:42.104Z,0.60
2023-03-10T14:44:10.830Z,4.75
2023-03-10T14:46:38.453Z,0.70
2023-03-10T14:49:17.480Z,0.75
2023-03-10T14:51:44.836Z,1.48
2023-03-10T14:54:16.706Z,1.75
2023-03-10T14:56:44.304Z,1.60
2023-03-10T14:59:13.073Z,1.48
2023-03-10T15:01:40.530Z,3.00
2023-03-10T15:04:11.101Z,1.58
2023-03-10T15:06:38.431Z,3.60
2023-03-10T15:09:05.759Z,5.15
2023-03-10T15:11:37.534Z,2.58
2023-03-10T15:14:05.426Z,2.05
2023-03-10T15:16:32.764Z,2.97
2023-03-10T15:19:00.089Z,6.03
2023-03-10T15:21:27.465Z,2.20
2023-03-10T15:23:55.719Z,1.30
2023-03-10T15:26:23.095Z,1.10
2023-03-10T15:28:51.762Z,5.07
2023-03-10T15:31:19.109Z,1.60
2023-03-10T15:33:46.511Z,2.20
2023-03-10T15:36:13.990Z,3.13
2023-03-10T15:38:41.403Z,1.33
2023-03-10T15:41:08.735Z,3.42
2023-03-10T15:43:36.060Z,1.20
2023-03-10T15:46:07.642Z,1.50
2023-03-10T15:48:35.988Z,1.75
2023-03-10T15:51:03.308Z,2.35
2023-03-10T15:53:30.616Z,1.67
2023-03-10T15:55:57.988Z,7.00
2023-03-10T15:58:25.367Z,1.25
2023-03-10T16:00:52.700Z,1.02
2023-03-10T16:03:21.771Z,0.93
2023-03-10T16:05:49.417Z,1.17
2023-03-10T16:08:18.768Z,0.80
2023-03-10T16:10:51.781Z,3.47
2023-03-10T16:13:19.118Z,1.48
2023-03-10T16:15:46.840Z,1.75
2023-03-10T16:18:16.105Z,1.50
2023-03-10T16:20:44.866Z,1.40
2023-03-10T16:23:12.324Z,1.40
2023-03-10T16:25:40.741Z,1.08
2023-03-10T16:28:08.071Z,0.90
2023-03-10T16:30:35.424Z,1.40
2023-03-10T16:33:02.747Z,0.70
2023-03-10T16:35:31.413Z,0.50
2023-03-10T16:38:01.440Z,0.50
2023-03-10T16:40:28.770Z,0.73
2023-03-10T16:42:56.175Z,0.60
2023-03-10T16:45:23.533Z,1.02
2023-03-10T16:47:50.920Z,0.93
2023-03-10T16:50:18.406Z,1.42
2023-03-10T16:52:45.726Z,1.05
2023-03-10T16:55:17.093Z,1.30
2023-03-10T16:57:45.100Z,1.50
2023-03-10T17:00:13.273Z,2.20
2023-03-10T17:02:40.581Z,1.92
2023-03-10T17:05:09.904Z,1.77
2023-03-10T17:07:46.472Z,2.78
2023-03-10T17:10:22.113Z,2.80
2023-03-10T17:12:49.415Z,3.22
2023-03-10T17:15:16.856Z,2.80
2023-03-10T17:17:44.340Z,2.80
2023-03-10T17:20:13.671Z,3.30
2023-03-10T17:22:41.108Z,3.97
2023-03-10T17:25:08.874Z,4.38
2023-03-10T17:27:37.607Z,4.57
2023-03-10T17:30:05.365Z,5.18
2023-03-10T17:32:32.844Z,5.68
2023-03-10T17:35:00.284Z,4.45
2023-03-10T17:37:27.591Z,4.93
2023-03-10T17:39:55.378Z,6.55
2023-03-10T17:42:23.337Z,6.53
2023-03-10T17:44:51.994Z,5.90
2023-03-10T17:47:19.324Z,6.35
2023-03-10T17:49:46.659Z,8.93
2023-03-10T17:52:14.008Z,9.07
2023-03-10T17:54:41.422Z,7.20
2023-03-10T17:57:08.871Z,11.52
2023-03-10T17:59:38.833Z,8.23
2023-03-10T18:02:07.693Z,11.95
2023-03-10T18:04:36.408Z,14.13
2023-03-10T18:07:03.758Z,9.15
2023-03-10T18:09:31.093Z,8.70
2023-03-10T18:11:58.432Z,5.68
2023-03-10T18:14:26.533Z,5.32
2023-03-10T18:16:53.848Z,6.47
2023-03-10T18:19:22.549Z,4.22
2023-03-10T18:21:49.980Z,6.55
2023-03-10T18:24:17.490Z,5.70
2023-03-10T18:26:45.555Z,6.53
2023-03-10T18:29:13.509Z,6.18
2023-03-10T18:31:41.148Z,7.55
2023-03-10T18:34:09.987Z,7.63
2023-03-10T18:36:38.734Z,10.90
2023-03-10T18:39:07.640Z,9.73
2023-03-10T18:41:35.804Z,8.25
2023-03-10T18:44:03.143Z,9.98
2023-03-10T18:46:30.561Z,12.07
2023-03-10T18:48:57.978Z,10.75
2023-03-10T18:51:25.698Z,8.85
2023-03-10T18:53:54.636Z,7.70
2023-03-10T18:56:22.323Z,5.78
2023-03-10T18:58:49.608Z,6.32
2023-03-10T19:01:17.072Z,6.85
2023-03-10T19:03:44.388Z,8.35
2023-03-10T19:06:11.724Z,7.80
2023-03-10T19:08:39.755Z,6.78
2023-03-10T19:11:08.479Z,5.13
2023-03-10T19:13:35.886Z,6.57
2023-03-10T19:16:05.985Z,7.28
2023-03-10T19:18:33.320Z,6.72
2023-03-10T19:21:00.957Z,4.00
2023-03-10T19:23:28.733Z,4.35
2023-03-10T19:25:56.154Z,5.00
2023-03-10T19:28:24.847Z,4.78
2023-03-10T19:30:52.147Z,4.05
2023-03-10T19:33:19.596Z,5.15
2023-03-10T19:35:46.918Z,2.45
2023-03-10T19:38:14.275Z,4.90
2023-03-10T19:40:41.620Z,4.13
2023-03-10T19:43:08.936Z,3.50
2023-03-10T19:45:37.722Z,2.97
2023-03-10T19:48:05.619Z,3.08
2023-03-10T19:50:32.938Z,4.82
2023-03-10T19:53:00.236Z,3.80
2023-03-10T19:55:27.581Z,3.83
2023-03-10T19:57:55.785Z,4.93
2023-03-10T20:00:25.261Z,7.32
2023-03-10T20:02:54.532Z,5.53
2023-03-10T20:05:22.469Z,4.38
2023-03-10T20:07:49.854Z,6.05
2023-03-10T20:10:18.186Z,7.03
2023-03-10T20:12:46.921Z,6.28
2023-03-10T20:15:14.302Z,6.68
2023-03-10T20:17:41.618Z,7.88
2023-03-10T20:20:11.292Z,6.22
2023-03-10T20:22:39.618Z,7.20
2023-03-10T20:25:07.238Z,5.03
2023-03-10T20:27:34.633Z,5.80
2023-03-10T20:30:01.952Z,7.82
2023-03-10T20:32:29.325Z,6.68
2023-03-10T20:34:56.660Z,6.32
2023-03-10T20:37:25.441Z,7.80
2023-03-10T20:39:52.771Z,11.85
2023-03-10T20:42:20.094Z,7.28
2023-03-10T20:44:47.412Z,7.38
2023-03-10T20:47:14.698Z,8.88
2023-03-10T20:49:42.020Z,6.75
2023-03-10T20:52:09.307Z,11.63
2023-03-10T20:54:37.944Z,10.82
2023-03-10T20:57:05.236Z,10.00
2023-03-10T20:59:32.560Z,11.52
2023-03-10T21:01:59.859Z,6.80
2023-03-10T21:04:28.112Z,5.47
2023-03-10T21:06:55.609Z,7.68
2023-03-10T21:09:22.953Z,9.65
2023-03-10T21:11:52.326Z,4.47
2023-03-10T21:14:19.732Z,4.90
2023-03-10T21:16:47.065Z,8.15
2023-03-10T21:19:14.548Z,3.05
2023-03-10T21:21:41.848Z,4.05
2023-03-10T21:24:09.259Z,3.78
2023-03-10T21:26:36.795Z,4.68
2023-03-10T21:29:06.011Z,4.57
2023-03-10T21:31:33.297Z,3.72
2023-03-10T21:34:00.601Z,4.43
2023-03-10T21:36:27.931Z,4.25
2023-03-10T21:38:55.242Z,3.45
2023-03-10T21:41:23.336Z,3.38
2023-03-10T21:43:50.731Z,4.63
2023-03-10T21:46:19.428Z,5.97
2023-03-10T21:48:46.858Z,4.72
2023-03-10T21:51:14.326Z,4.38
2023-03-10T21:53:41.653Z,5.32
2023-03-10T21:56:09.461Z,7.22
2023-03-10T21:58:36.922Z,5.53
2023-03-10T22:01:04.663Z,4.57
2023-03-10T22:03:34.258Z,9.07
2023-03-10T22:06:04.663Z,11.35
2023-03-10T22:08:32.155Z,8.50
2023-03-10T22:10:59.503Z,4.47
2023-03-10T22:13:26.822Z,10.82
2023-03-10T22:15:54.210Z,12.00
2023-03-10T22:18:21.587Z,6.03
2023-03-10T22:20:50.252Z,4.47
2023-03-10T22:23:17.599Z,8.70
2023-03-10T22:25:44.899Z,6.38
2023-03-10T22:28:12.307Z,8.00
2023-03-10T22:30:40.056Z,5.80
2023-03-10T22:33:07.917Z,5.68
2023-03-10T22:35:35.667Z,7.65
2023-03-10T22:38:04.727Z,4.80
2023-03-10T22:40:32.085Z,8.90
2023-03-10T22:42:59.422Z,8.70
2023-03-10T22:45:27.635Z,11.43
2023-03-10T22:47:55.728Z,10.68
2023-03-10T22:50:24.052Z,10.55
2023-03-10T22:52:51.418Z,6.07
2023-03-10T22:55:24.466Z,10.57
2023-03-10T22:57:51.873Z,9.18
2023-03-10T23:00:20.088Z,6.72
2023-03-10T23:02:47.692Z,8.35
2023-03-10T23:05:15.830Z,6.32
2023-03-10T23:07:43.365Z,13.57
2023-03-10T23:10:11.539Z,9.25
2023-03-10T23:12:40.544Z,7.55
2023-03-10T23:15:15.384Z,10.98
2023-03-10T23:17:49.889Z,11.75
2023-03-10T23:20:17.752Z,7.20
2023-03-10T23:22:46.628Z,6.05
2023-03-10T23:25:16.444Z,9.55
2023-03-10T23:27:45.584Z,4.85
2023-03-10T23:30:14.773Z,8.65
2023-03-10T23:32:42.152Z,13.70
2023-03-10T23:35:11.889Z,11.23
2023-03-10T23:37:39.432Z,7.93
2023-03-10T23:40:10.409Z,14.40
2023-03-10T23:42:37.922Z,13.00
2023-03-10T23:45:07.301Z,10.98
2023-03-10T23:47:35.255Z,9.27
2023-03-10T23:50:02.575Z,14.30
2023-03-10T23:52:29.887Z,9.55
2023-03-10T23:54:57.213Z,11.23
2023-03-10T23:57:24.521Z,11.70
2023-03-10T23:59:51.838Z,10.70
